createdAt,value
2018-04-22T00:00:11.380Z,4.00
2018-04-22T00:01:11.400Z,4.00
2018-04-22T00:02:11.420Z,4.00
2018-04-22T00:03:11.433Z,4.00
2018-04-22T00:04:11.454Z,4.00
2018-04-22T00:05:11.466Z,4.00
2018-04-22T00:06:11.489Z,4.00
2018-04-22T00:07:11.505Z,4.00
2018-04-22T00:08:11.522Z,4.00
2018-04-22T00:09:11.536Z,4.00
2018-04-22T00:10:11.557Z,4.00
2018-04-22T00:11:11.571Z,4.00
2018-04-22T00:12:11.597Z,4.00
2018-04-22T00:13:11.797Z,4.00
2018-04-22T00:15:11.659Z,4.00
2018-04-22T00:16:11.741Z,4.00
2018-04-22T00:17:11.709Z,4.00
2018-04-22T00:18:11.705Z,4.00
2018-04-22T00:19:11.783Z,4.00
2018-04-22T00:20:11.731Z,4.00
2018-04-22T00:21:11.825Z,4.00
2018-04-22T00:22:11.772Z,4.00
2018-04-22T00:23:11.783Z,4.00
2018-04-22T00:24:11.797Z,4.00
2018-04-22T00:25:11.816Z,4.00
2018-04-22T00:26:11.832Z,4.00
2018-04-22T00:27:11.867Z,4.00
2018-04-22T00:28:11.871Z,4.00
2018-04-22T00:29:11.899Z,4.00
2018-04-22T00:30:11.905Z,4.00
2018-04-22T00:31:11.926Z,4.00
2018-04-22T00:32:11.940Z,4.00
2018-04-22T00:33:11.954Z,4.00
2018-04-22T00:34:11.976Z,4.00
2018-04-22T00:35:11.990Z,4.00
2018-04-22T00:36:12.006Z,4.00
2018-04-22T00:37:12.032Z,4.00
2018-04-22T00:38:12.044Z,4.00
2018-04-22T00:39:12.058Z,4.00
2018-04-22T00:40:12.073Z,4.00
2018-04-22T00:41:12.098Z,4.00
2018-04-22T00:42:12.110Z,4.00
2018-04-22T00:43:12.127Z,4.00
2018-04-22T00:44:12.149Z,4.00
2018-04-22T00:45:12.166Z,4.00
2018-04-22T00:46:12.184Z,4.00
2018-04-22T00:47:12.233Z,4.00
2018-04-22T00:48:12.229Z,4.00
2018-04-22T00:49:12.498Z,4.00
2018-04-22T00:53:12.894Z,4.00
2018-04-22T00:54:12.320Z,4.00
2018-04-22T00:55:12.336Z,4.00
2018-04-22T00:56:12.357Z,4.00
2018-04-22T00:57:12.370Z,4.00
2018-04-22T00:58:12.394Z,4.00
2018-04-22T00:59:12.408Z,4.00
2018-04-22T01:00:12.441Z,4.00
2018-04-22T01:01:12.480Z,4.00
2018-04-22T01:02:12.462Z,4.00
2018-04-22T01:03:12.501Z,4.00
2018-04-22T01:04:12.497Z,4.00
2018-04-22T01:05:12.508Z,4.00
2018-04-22T01:06:12.524Z,4.00
2018-04-22T01:07:12.545Z,4.00
2018-04-22T01:08:12.558Z,4.00
2018-04-22T01:09:12.577Z,4.00
2018-04-22T01:10:12.602Z,4.00
2018-04-22T01:11:12.629Z,4.00
2018-04-22T01:12:12.635Z,4.00
2018-04-22T01:13:12.656Z,4.00
2018-04-22T01:14:12.662Z,4.00
2018-04-22T01:15:12.682Z,4.00
2018-04-22T01:16:12.697Z,4.00
2018-04-22T01:17:12.718Z,4.00
2018-04-22T01:18:12.736Z,4.00
2018-04-22T01:19:12.750Z,4.00
2018-04-22T01:20:12.775Z,4.00
2018-04-22T01:21:12.788Z,4.00
2018-04-22T01:22:12.839Z,4.00
2018-04-22T01:23:12.906Z,4.00
2018-04-22T01:24:12.838Z,4.00
2018-04-22T01:25:12.853Z,4.00
2018-04-22T01:26:12.889Z,4.00
2018-04-22T01:27:12.889Z,4.00
2018-04-22T01:28:12.907Z,4.00
2018-04-22T01:29:12.926Z,4.00
2018-04-22T01:30:12.949Z,4.00
2018-04-22T01:31:12.969Z,4.00
2018-04-22T01:32:13.021Z,4.00
2018-04-22T01:33:12.992Z,4.00
2018-04-22T01:34:13.013Z,4.00
2018-04-22T01:35:13.032Z,4.00
2018-04-22T01:36:13.045Z,4.00
2018-04-22T01:37:13.066Z,4.00
2018-04-22T01:38:13.079Z,4.00
2018-04-22T01:39:13.100Z,4.00
2018-04-22T01:40:13.113Z,4.00
2018-04-22T01:41:13.129Z,4.00
2018-04-22T01:42:13.149Z,4.00
2018-04-22T01:43:13.169Z,4.00
2018-04-22T01:44:13.181Z,4.00
2018-04-22T01:45:13.196Z,4.00
2018-04-22T01:46:13.218Z,4.00
2018-04-22T01:47:13.232Z,4.00
2018-04-22T01:48:13.258Z,4.00
2018-04-22T01:49:13.276Z,4.00
2018-04-22T01:50:13.285Z,4.00
2018-04-22T01:51:13.301Z,4.00
2018-04-22T01:52:13.317Z,4.00
2018-04-22T01:53:13.333Z,4.00
2018-04-22T01:54:13.357Z,4.00
2018-04-22T01:55:13.371Z,4.00
2018-04-22T01:56:13.389Z,4.00
2018-04-22T01:57:13.413Z,4.00
2018-04-22T01:59:13.437Z,4.00
2018-04-22T02:00:13.503Z,4.00
2018-04-22T02:01:13.556Z,4.00
2018-04-22T02:02:13.512Z,4.00
2018-04-22T02:03:13.505Z,4.00
2018-04-22T02:04:13.520Z,4.00
2018-04-22T02:05:13.540Z,4.00
2018-04-22T02:06:13.555Z,4.00
2018-04-22T02:07:13.574Z,4.00
2018-04-22T02:08:13.594Z,4.00
2018-04-22T02:09:13.605Z,4.00
2018-04-22T02:10:13.623Z,4.00
2018-04-22T02:11:13.648Z,4.00
2018-04-22T02:12:13.663Z,4.00
2018-04-22T02:13:13.675Z,4.00
2018-04-22T02:14:13.691Z,4.00
2018-04-22T02:15:13.706Z,4.00
2018-04-22T02:16:13.723Z,4.00
2018-04-22T02:17:13.742Z,4.00
2018-04-22T02:18:13.756Z,4.00
2018-04-22T02:19:13.773Z,4.00
2018-04-22T02:20:13.792Z,4.00
2018-04-22T02:21:13.806Z,4.00
2018-04-22T02:22:13.827Z,4.00
2018-04-22T02:23:13.842Z,4.00
2018-04-22T02:24:13.859Z,4.00
2018-04-22T02:25:13.877Z,4.00
2018-04-22T02:26:13.893Z,4.00
2018-04-22T02:27:13.972Z,4.00
2018-04-22T02:28:13.968Z,4.00
2018-04-22T02:29:14.002Z,4.00
2018-04-22T02:30:13.975Z,4.00
2018-04-22T02:31:13.980Z,4.00
2018-04-22T02:32:13.997Z,4.00
2018-04-22T02:33:14.012Z,4.00
2018-04-22T02:34:14.027Z,4.00
2018-04-22T02:35:14.043Z,4.00
2018-04-22T02:36:14.064Z,4.00
2018-04-22T02:37:14.086Z,4.00
2018-04-22T02:38:14.092Z,4.00
2018-04-22T02:39:14.118Z,4.00
2018-04-22T02:40:14.131Z,4.00
2018-04-22T02:41:14.143Z,4.00
2018-04-22T02:42:14.165Z,4.00
2018-04-22T02:43:14.178Z,4.00
2018-04-22T02:44:14.203Z,4.00
2018-04-22T02:45:14.211Z,4.00
2018-04-22T02:46:14.227Z,4.00
2018-04-22T02:47:14.269Z,4.00
2018-04-22T02:48:14.265Z,4.00
2018-04-22T02:49:14.283Z,4.00
2018-04-22T02:50:14.286Z,4.00
2018-04-22T02:51:14.303Z,4.00
2018-04-22T02:52:14.326Z,4.00
2018-04-22T02:53:14.337Z,4.00
2018-04-22T02:54:14.355Z,4.00
2018-04-22T02:55:14.370Z,4.00
2018-04-22T02:56:14.388Z,4.00
2018-04-22T02:57:14.406Z,4.00
2018-04-22T02:58:14.423Z,4.00
2018-04-22T02:59:14.506Z,4.00
2018-04-22T03:00:14.937Z,4.00
2018-04-22T03:01:14.470Z,4.00
2018-04-22T03:02:14.491Z,4.00
2018-04-22T03:03:14.505Z,4.00
2018-04-22T03:04:14.519Z,4.00
2018-04-22T03:05:14.542Z,4.00
2018-04-22T03:06:14.553Z,4.00
2018-04-22T03:07:14.570Z,4.00
2018-04-22T03:08:14.586Z,4.00
2018-04-22T03:09:14.605Z,4.00
2018-04-22T03:10:14.620Z,4.00
2018-04-22T03:11:14.638Z,4.00
2018-04-22T03:12:14.654Z,4.00
2018-04-22T03:13:14.674Z,4.00
2018-04-22T03:14:14.688Z,4.00
2018-04-22T03:15:14.706Z,4.00
2018-04-22T03:16:14.725Z,4.00
2018-04-22T03:17:14.738Z,4.00
2018-04-22T03:18:14.753Z,4.00
2018-04-22T03:19:14.770Z,4.00
2018-04-22T03:20:14.788Z,4.00
2018-04-22T03:21:14.815Z,4.00
2018-04-22T03:22:14.858Z,4.00
2018-04-22T03:23:14.838Z,4.00
2018-04-22T03:24:14.854Z,4.00
2018-04-22T03:25:14.875Z,4.00
2018-04-22T03:26:14.887Z,4.00
2018-04-22T03:27:14.925Z,4.00
2018-04-22T03:28:14.928Z,4.00
2018-04-22T03:29:14.943Z,4.00
2018-04-22T03:31:15.094Z,4.00
2018-04-22T03:32:15.480Z,4.00
2018-04-22T03:33:15.013Z,4.00
2018-04-22T03:34:15.070Z,4.00
2018-04-22T03:35:15.379Z,4.00
2018-04-22T03:36:15.114Z,4.00
2018-04-22T03:37:15.137Z,4.00
2018-04-22T03:38:15.393Z,4.00
2018-04-22T03:39:15.109Z,4.00
2018-04-22T03:40:15.124Z,4.00
2018-04-22T03:41:15.138Z,4.00
2018-04-22T03:42:15.155Z,4.00
2018-04-22T03:43:15.174Z,4.00
2018-04-22T03:44:15.191Z,4.00
2018-04-22T03:45:15.209Z,4.00
2018-04-22T03:46:15.222Z,4.00
2018-04-22T03:47:15.240Z,4.00
2018-04-22T03:48:15.256Z,0.00
2018-04-22T03:49:15.274Z,4.00
2018-04-22T03:50:15.292Z,4.00
2018-04-22T03:51:15.312Z,4.00
2018-04-22T03:52:15.327Z,4.00
2018-04-22T03:53:15.339Z,4.00
2018-04-22T03:54:15.462Z,4.00
2018-04-22T03:55:15.374Z,4.00
2018-04-22T03:56:15.401Z,8.00
2018-04-22T03:57:15.414Z,4.00
2018-04-22T03:58:15.441Z,8.00
2018-04-22T03:59:15.445Z,4.00
2018-04-22T04:00:15.458Z,8.00
2018-04-22T04:01:15.524Z,8.00
2018-04-22T04:02:15.541Z,8.00
2018-04-22T04:03:15.514Z,8.00
2018-04-22T04:04:15.554Z,8.00
2018-04-22T04:05:15.537Z,12.00
2018-04-22T04:06:15.557Z,12.00
2018-04-22T04:07:15.662Z,12.00
2018-04-22T04:08:15.770Z,16.00
2018-04-22T04:09:15.608Z,16.00
2018-04-22T04:10:15.621Z,20.00
2018-04-22T04:11:15.653Z,20.00
2018-04-22T04:12:15.662Z,24.00
2018-04-22T04:13:15.671Z,28.00
2018-04-22T04:14:15.713Z,32.00
2018-04-22T04:15:15.706Z,36.00
2018-04-22T04:16:15.728Z,40.00
2018-04-22T04:17:15.737Z,44.00
2018-04-22T04:18:15.755Z,48.00
2018-04-22T04:19:15.777Z,52.00
2018-04-22T04:20:15.790Z,60.00
2018-04-22T04:21:15.806Z,64.00
2018-04-22T04:22:15.822Z,68.00
2018-04-22T04:23:15.844Z,72.00
2018-04-22T04:24:15.855Z,80.00
2018-04-22T04:25:15.875Z,84.00
2018-04-22T04:26:15.889Z,92.00
2018-04-22T04:27:15.905Z,92.00
2018-04-22T04:28:15.925Z,96.00
2018-04-22T04:29:15.941Z,100.00
2018-04-22T04:30:15.956Z,104.00
2018-04-22T04:31:15.972Z,108.00
2018-04-22T04:32:15.991Z,116.00
2018-04-22T04:33:16.100Z,124.00
2018-04-22T04:34:16.230Z,132.00
2018-04-22T04:35:16.087Z,140.00
2018-04-22T04:36:16.057Z,148.00
2018-04-22T04:37:16.070Z,164.00
2018-04-22T04:38:16.088Z,172.00
2018-04-22T04:40:16.124Z,196.00
2018-04-22T04:41:16.139Z,208.00
2018-04-22T04:42:16.201Z,220.00
2018-04-22T04:43:16.281Z,224.00
2018-04-22T04:44:16.203Z,228.00
2018-04-22T04:45:16.209Z,240.00
2018-04-22T04:46:16.221Z,252.00
2018-04-22T04:47:16.245Z,268.00
2018-04-22T04:48:16.256Z,284.00
2018-04-22T04:49:16.283Z,296.00
2018-04-22T04:50:16.286Z,308.00
2018-04-22T04:51:16.305Z,316.00
2018-04-22T04:52:16.324Z,328.00
2018-04-22T04:53:16.337Z,336.00
2018-04-22T04:54:16.368Z,344.00
2018-04-22T04:55:16.375Z,364.00
2018-04-22T04:56:16.401Z,380.00
2018-04-22T04:57:16.405Z,396.00
2018-04-22T04:58:16.421Z,408.00
2018-04-22T04:59:16.437Z,412.00
2018-04-22T05:00:16.477Z,420.00
2018-04-22T05:01:16.480Z,420.00
2018-04-22T05:02:16.493Z,424.00
2018-04-22T05:03:16.504Z,424.00
2018-04-22T05:04:16.523Z,416.00
2018-04-22T05:05:16.550Z,420.00
2018-04-22T05:06:16.556Z,420.00
2018-04-22T05:09:16.985Z,436.00
2018-04-22T05:10:16.742Z,448.00
2018-04-22T05:11:16.655Z,464.00
2018-04-22T05:12:16.665Z,480.00
2018-04-22T05:13:16.674Z,496.00
2018-04-22T05:14:16.697Z,508.00
2018-04-22T05:15:17.274Z,524.00
2018-04-22T05:16:16.721Z,536.00
2018-04-22T05:17:16.744Z,552.00
2018-04-22T05:18:16.757Z,560.00
2018-04-22T05:19:16.774Z,564.00
2018-04-22T05:20:16.791Z,572.00
2018-04-22T05:21:16.807Z,588.00
2018-04-22T05:22:16.827Z,604.00
2018-04-22T05:23:16.841Z,624.00
2018-04-22T05:24:16.882Z,648.00
2018-04-22T05:25:16.872Z,680.00
2018-04-22T05:26:16.891Z,712.00
2018-04-22T05:27:16.909Z,740.00
2018-04-22T05:28:16.927Z,780.00
2018-04-22T05:29:16.944Z,820.00
2018-04-22T05:30:16.969Z,848.00
2018-04-22T05:31:17.023Z,876.00
2018-04-22T05:32:16.990Z,896.00
2018-04-22T05:33:17.006Z,912.00
2018-04-22T05:34:17.023Z,928.00
2018-04-22T05:35:17.047Z,944.00
2018-04-22T05:36:17.058Z,972.00
2018-04-22T05:37:17.087Z,992.00
2018-04-22T05:38:17.097Z,1016.00
2018-04-22T05:39:17.170Z,1024.00
2018-04-22T05:40:17.147Z,1040.00
2018-04-22T05:41:17.188Z,1032.00
2018-04-22T05:42:17.168Z,1028.00
2018-04-22T05:43:17.178Z,1000.00
2018-04-22T05:44:17.191Z,988.00
2018-04-22T05:45:17.229Z,1004.00
2018-04-22T05:46:17.313Z,1024.00
2018-04-22T05:47:17.241Z,1048.00
2018-04-22T05:48:17.261Z,1060.00
2018-04-22T05:49:17.280Z,1072.00
2018-04-22T05:50:17.293Z,1092.00
2018-04-22T05:51:17.310Z,1124.00
2018-04-22T05:52:17.327Z,1132.00
2018-04-22T05:53:17.344Z,1148.00
2018-04-22T05:54:17.360Z,1196.00
2018-04-22T05:55:17.375Z,1252.00
2018-04-22T05:56:17.397Z,1304.00
2018-04-22T05:57:17.412Z,1340.00
2018-04-22T05:58:17.452Z,1368.00
2018-04-22T05:59:17.446Z,1392.00
2018-04-22T06:00:17.467Z,1424.00
2018-04-22T06:01:17.476Z,1452.00
2018-04-22T06:02:17.543Z,1468.00
2018-04-22T06:03:17.516Z,1496.00
2018-04-22T06:04:17.531Z,1520.00
2018-04-22T06:05:17.547Z,1532.00
2018-04-22T06:06:17.562Z,1528.00
2018-04-22T06:07:17.578Z,1516.00
2018-04-22T06:08:17.603Z,1488.00
2018-04-22T06:09:17.612Z,1516.00
2018-04-22T06:10:17.629Z,1540.00
2018-04-22T06:11:17.804Z,1536.00
2018-04-22T06:12:17.926Z,1588.00
2018-04-22T06:13:17.950Z,1616.00
2018-04-22T06:14:17.698Z,1620.00
2018-04-22T06:15:17.715Z,1620.00
2018-04-22T06:16:17.735Z,1604.00
2018-04-22T06:17:17.788Z,1584.00
2018-04-22T06:18:17.764Z,1588.00
2018-04-22T06:19:17.783Z,1584.00
2018-04-22T06:20:17.799Z,1592.00
2018-04-22T06:21:17.816Z,1580.00
2018-04-22T06:22:17.965Z,1624.00
2018-04-22T06:23:17.850Z,1680.00
2018-04-22T06:24:17.870Z,1688.00
2018-04-22T06:25:17.888Z,1684.00
2018-04-22T06:26:17.900Z,1768.00
2018-04-22T06:27:17.920Z,1864.00
2018-04-22T06:28:17.955Z,1952.00
2018-04-22T06:29:17.954Z,2088.00
2018-04-22T06:30:17.968Z,2204.00
2018-04-22T06:31:17.987Z,2296.00
2018-04-22T06:32:18.001Z,2364.00
2018-04-22T06:33:18.027Z,2408.00
2018-04-22T06:34:18.035Z,2500.00
2018-04-22T06:35:18.052Z,2564.00
2018-04-22T06:36:18.071Z,2628.00
2018-04-22T06:37:18.089Z,2692.00
2018-04-22T06:38:18.103Z,2708.00
2018-04-22T06:39:18.120Z,2744.00
2018-04-22T06:40:18.152Z,2744.00
2018-04-22T06:41:18.160Z,2760.00
2018-04-22T06:42:18.211Z,2824.00
2018-04-22T06:43:18.273Z,2852.00
2018-04-22T06:44:18.255Z,2876.00
2018-04-22T06:45:18.224Z,2864.00
2018-04-22T06:46:18.244Z,2836.00
2018-04-22T06:47:18.262Z,2820.00
2018-04-22T06:48:18.279Z,2716.00
2018-04-22T06:49:18.296Z,2692.00
2018-04-22T06:50:18.312Z,2588.00
2018-04-22T06:51:18.325Z,2564.00
2018-04-22T06:52:18.344Z,2600.00
2018-04-22T06:53:18.374Z,2552.00
2018-04-22T06:54:18.380Z,2516.00
2018-04-22T06:55:18.402Z,2468.00
2018-04-22T06:56:18.415Z,2380.00
2018-04-22T06:57:18.437Z,2256.00
2018-04-22T06:58:18.448Z,1808.00
2018-04-22T06:59:18.481Z,1764.00
2018-04-22T07:00:18.484Z,1700.00
2018-04-22T07:01:18.505Z,1668.00
2018-04-22T07:02:18.519Z,1584.00
2018-04-22T07:03:18.534Z,1572.00
2018-04-22T07:04:18.553Z,1592.00
2018-04-22T07:05:18.575Z,1620.00
2018-04-22T07:06:18.586Z,1668.00
2018-04-22T07:07:18.608Z,1752.00
2018-04-22T07:08:18.637Z,1920.00
2018-04-22T07:09:18.651Z,1944.00
2018-04-22T07:10:18.657Z,2436.00
2018-04-22T07:11:18.674Z,2532.00
2018-04-22T07:12:18.694Z,2548.00
2018-04-22T07:13:18.709Z,2584.00
2018-04-22T07:14:18.726Z,2608.00
2018-04-22T07:15:18.750Z,2600.00
2018-04-22T07:16:18.762Z,2568.00
2018-04-22T07:17:18.862Z,2548.00
2018-04-22T07:18:19.293Z,2496.00
2018-04-22T07:19:18.813Z,2452.00
2018-04-22T07:20:18.835Z,2508.00
2018-04-22T07:21:18.849Z,2552.00
2018-04-22T07:22:18.904Z,2588.00
2018-04-22T07:23:18.935Z,2648.00
2018-04-22T07:24:18.903Z,2684.00
2018-04-22T07:25:18.953Z,2672.00
2018-04-22T07:26:18.938Z,2724.00
2018-04-22T07:27:18.956Z,2772.00
2018-04-22T07:28:18.978Z,2772.00
2018-04-22T07:29:19.002Z,2812.00
2018-04-22T07:31:19.629Z,2876.00
2018-04-22T07:32:19.043Z,2924.00
2018-04-22T07:33:19.059Z,2896.00
2018-04-22T07:34:19.076Z,2932.00
2018-04-22T07:35:19.099Z,2916.00
2018-04-22T07:36:19.111Z,2892.00
2018-04-22T07:37:19.131Z,2904.00
2018-04-22T07:38:19.155Z,2860.00
2018-04-22T07:39:19.167Z,2740.00
2018-04-22T07:40:19.192Z,2772.00
2018-04-22T07:41:19.201Z,2848.00
2018-04-22T07:42:19.238Z,2860.00
2018-04-22T07:43:19.239Z,2900.00
2018-04-22T07:44:19.255Z,2916.00
2018-04-22T07:45:19.277Z,2872.00
2018-04-22T07:46:19.468Z,2844.00
2018-04-22T07:47:19.309Z,2836.00
2018-04-22T07:48:19.428Z,2896.00
2018-04-22T07:49:19.452Z,2860.00
2018-04-22T07:50:19.788Z,2800.00
2018-04-22T07:51:19.383Z,2788.00
2018-04-22T07:52:19.399Z,2952.00
2018-04-22T07:53:19.415Z,2940.00
2018-04-22T07:54:19.433Z,3048.00
2018-04-22T07:55:19.449Z,3040.00
2018-04-22T07:56:19.472Z,3004.00
2018-04-22T07:57:19.500Z,2972.00
2018-04-22T07:58:19.553Z,2968.00
2018-04-22T07:59:19.523Z,2996.00
2018-04-22T08:00:19.538Z,3072.00
2018-04-22T08:01:19.562Z,3128.00
2018-04-22T08:02:19.575Z,3104.00
2018-04-22T08:03:19.594Z,3048.00
2018-04-22T08:04:19.622Z,2940.00
2018-04-22T08:05:19.629Z,2904.00
2018-04-22T08:06:19.648Z,2952.00
2018-04-22T08:07:19.669Z,2952.00
2018-04-22T08:08:19.682Z,2916.00
2018-04-22T08:09:19.705Z,2772.00
2018-04-22T08:10:19.720Z,3008.00
2018-04-22T08:11:19.743Z,3016.00
2018-04-22T08:12:19.784Z,3148.00
2018-04-22T08:13:19.773Z,3156.00
2018-04-22T08:14:19.791Z,3148.00
2018-04-22T08:15:19.815Z,3128.00
2018-04-22T08:16:19.882Z,2992.00
2018-04-22T08:17:19.844Z,3032.00
2018-04-22T08:18:19.864Z,2996.00
2018-04-22T08:19:19.881Z,3076.00
2018-04-22T08:20:19.915Z,3088.00
2018-04-22T08:21:19.921Z,3308.00
2018-04-22T08:22:20.310Z,3344.00
2018-04-22T08:23:19.954Z,3276.00
2018-04-22T08:24:19.994Z,3192.00
2018-04-22T08:25:19.993Z,3112.00
2018-04-22T08:26:20.008Z,3256.00
2018-04-22T08:27:20.030Z,3304.00
2018-04-22T08:28:20.086Z,3268.00
2018-04-22T08:29:20.075Z,3288.00
2018-04-22T08:30:20.082Z,3308.00
2018-04-22T08:31:20.134Z,3208.00
2018-04-22T08:32:20.184Z,3312.00
2018-04-22T08:33:20.187Z,3244.00
2018-04-22T08:34:20.155Z,3360.00
2018-04-22T08:35:20.176Z,3308.00
2018-04-22T08:36:20.193Z,3380.00
2018-04-22T08:38:20.236Z,3364.00
2018-04-22T08:39:20.918Z,3392.00
2018-04-22T08:40:20.276Z,3328.00
2018-04-22T08:41:20.296Z,3348.00
2018-04-22T08:42:20.306Z,3372.00
2018-04-22T08:43:20.320Z,3416.00
2018-04-22T08:44:20.340Z,3480.00
2018-04-22T08:45:20.362Z,3400.00
2018-04-22T08:46:20.375Z,3392.00
2018-04-22T08:47:20.395Z,3504.00
2018-04-22T08:48:20.412Z,3508.00
2018-04-22T08:49:20.439Z,3484.00
2018-04-22T08:50:20.461Z,3492.00
2018-04-22T08:51:20.469Z,3476.00
2018-04-22T08:52:20.489Z,3516.00
2018-04-22T08:53:20.505Z,3504.00
2018-04-22T08:54:20.557Z,3540.00
2018-04-22T08:55:20.560Z,3504.00
2018-04-22T08:56:20.562Z,3544.00
2018-04-22T08:57:20.590Z,3592.00
2018-04-22T08:58:20.629Z,3628.00
2018-04-22T08:59:20.639Z,3572.00
2018-04-22T09:00:20.649Z,3588.00
2018-04-22T09:01:20.662Z,3564.00
2018-04-22T09:02:20.692Z,3620.00
2018-04-22T09:03:20.698Z,3660.00
2018-04-22T09:04:20.714Z,3660.00
2018-04-22T09:05:20.782Z,3624.00
2018-04-22T09:06:20.804Z,3656.00
2018-04-22T09:07:20.832Z,3696.00
2018-04-22T09:08:20.792Z,3704.00
2018-04-22T09:09:20.810Z,3692.00
2018-04-22T09:10:20.825Z,3732.00
2018-04-22T09:11:20.852Z,3764.00
2018-04-22T09:12:20.874Z,3752.00
2018-04-22T09:15:20.922Z,3756.00
2018-04-22T09:16:20.962Z,3804.00
2018-04-22T09:17:20.958Z,3816.00
2018-04-22T09:18:20.976Z,3812.00
2018-04-22T09:19:21.005Z,3872.00
2018-04-22T09:20:21.024Z,3856.00
2018-04-22T09:21:21.042Z,3848.00
2018-04-22T09:22:21.055Z,3816.00
2018-04-22T09:23:21.213Z,3848.00
2018-04-22T09:24:21.456Z,3800.00
2018-04-22T09:25:21.555Z,3780.00
2018-04-22T09:26:21.176Z,3864.00
2018-04-22T09:27:21.150Z,3732.00
2018-04-22T09:28:21.170Z,3800.00
2018-04-22T09:29:21.188Z,3816.00
2018-04-22T09:30:21.212Z,3828.00
2018-04-22T09:31:21.238Z,3744.00
2018-04-22T09:32:21.250Z,3616.00
2018-04-22T09:33:21.264Z,3552.00
2018-04-22T09:34:21.290Z,3468.00
2018-04-22T09:35:21.303Z,3780.00
2018-04-22T09:36:21.337Z,3748.00
2018-04-22T09:37:21.807Z,3664.00
2018-04-22T09:38:21.451Z,3876.00
2018-04-22T09:39:21.406Z,3896.00
2018-04-22T09:40:21.408Z,3908.00
2018-04-22T09:41:21.427Z,3920.00
2018-04-22T09:42:21.444Z,3924.00
2018-04-22T09:43:21.480Z,3948.00
2018-04-22T09:44:21.481Z,3928.00
2018-04-22T09:45:21.499Z,3884.00
2018-04-22T09:46:21.518Z,3928.00
2018-04-22T09:47:21.647Z,3948.00
2018-04-22T09:48:21.622Z,3936.00
2018-04-22T09:49:21.576Z,3952.00
2018-04-22T09:50:21.598Z,3956.00
2018-04-22T09:51:21.619Z,3976.00
2018-04-22T09:52:21.636Z,3976.00
2018-04-22T09:53:21.687Z,3980.00
2018-04-22T09:54:21.675Z,3972.00
2018-04-22T09:55:21.706Z,3976.00
2018-04-22T09:56:21.742Z,3984.00
2018-04-22T09:58:21.746Z,4016.00
2018-04-22T09:59:21.846Z,4008.00
2018-04-22T10:00:21.787Z,4012.00
2018-04-22T10:01:21.806Z,4012.00
2018-04-22T10:02:21.830Z,4024.00
2018-04-22T10:03:21.849Z,4024.00
2018-04-22T10:04:21.866Z,4020.00
2018-04-22T10:05:21.892Z,4012.00
2018-04-22T10:06:21.921Z,4012.00
2018-04-22T10:07:21.946Z,4040.00
2018-04-22T10:08:21.955Z,4020.00
2018-04-22T10:09:21.963Z,3976.00
2018-04-22T10:10:21.986Z,4048.00
2018-04-22T10:11:22.073Z,4056.00
2018-04-22T10:12:22.033Z,4064.00
2018-04-22T10:13:22.047Z,4096.00
2018-04-22T10:14:22.064Z,4108.00
2018-04-22T10:15:22.085Z,4120.00
2018-04-22T10:16:22.109Z,4124.00
2018-04-22T10:17:22.141Z,4140.00
2018-04-22T10:18:22.149Z,4144.00
2018-04-22T10:19:22.166Z,4160.00
2018-04-22T10:20:22.187Z,4156.00
2018-04-22T10:21:22.206Z,4144.00
2018-04-22T10:22:22.329Z,4132.00
2018-04-22T10:23:22.247Z,4132.00
2018-04-22T10:24:22.268Z,4140.00
2018-04-22T10:25:22.285Z,4152.00
2018-04-22T10:26:22.310Z,4152.00
2018-04-22T10:27:22.335Z,4152.00
2018-04-22T10:28:22.346Z,4136.00
2018-04-22T10:29:22.367Z,4164.00
2018-04-22T10:30:22.417Z,4120.00
2018-04-22T10:31:22.408Z,4148.00
2018-04-22T10:32:22.430Z,4164.00
2018-04-22T10:33:22.509Z,4168.00
2018-04-22T10:34:22.772Z,4176.00
2018-04-22T10:35:22.497Z,4176.00
2018-04-22T10:36:22.515Z,4160.00
2018-04-22T10:37:22.536Z,4168.00
2018-04-22T10:38:22.552Z,4176.00
2018-04-22T10:39:22.578Z,4164.00
2018-04-22T10:40:22.592Z,4036.00
2018-04-22T10:41:22.615Z,4028.00
2018-04-22T10:42:22.651Z,4164.00
2018-04-22T10:43:22.654Z,4196.00
2018-04-22T10:44:22.681Z,4192.00
2018-04-22T10:45:22.697Z,4168.00
2018-04-22T10:46:22.732Z,4168.00
2018-04-22T10:47:22.754Z,4180.00
2018-04-22T10:48:22.756Z,4168.00
2018-04-22T10:49:22.840Z,4160.00
2018-04-22T10:50:22.802Z,4168.00
2018-04-22T10:51:22.828Z,4188.00
2018-04-22T10:52:22.841Z,4220.00
2018-04-22T10:53:22.906Z,4140.00
2018-04-22T10:54:23.046Z,4264.00
2018-04-22T10:55:22.907Z,4276.00
2018-04-22T10:56:23.244Z,4320.00
2018-04-22T10:57:23.215Z,4296.00
2018-04-22T10:59:22.989Z,4304.00
2018-04-22T11:00:23.037Z,4324.00
2018-04-22T11:01:23.030Z,4356.00
2018-04-22T11:02:23.047Z,4380.00
2018-04-22T11:03:23.071Z,4440.00
2018-04-22T11:04:23.094Z,4364.00
2018-04-22T11:05:23.182Z,4228.00
2018-04-22T11:06:23.153Z,4316.00
2018-04-22T11:07:23.205Z,3988.00
2018-04-22T11:08:23.176Z,4040.00
2018-04-22T11:09:23.195Z,4216.00
2018-04-22T11:10:23.217Z,4324.00
2018-04-22T11:11:23.243Z,4504.00
2018-04-22T11:12:23.266Z,4408.00
2018-04-22T11:13:23.280Z,4508.00
2018-04-22T11:14:23.319Z,4468.00
2018-04-22T11:15:23.324Z,4332.00
2018-04-22T11:16:23.345Z,4320.00
2018-04-22T11:17:23.363Z,4264.00
2018-04-22T11:18:23.387Z,4280.00
2018-04-22T11:19:23.407Z,4116.00
2018-04-22T11:20:23.437Z,4396.00
2018-04-22T11:21:23.754Z,4224.00
2018-04-22T11:22:23.478Z,4340.00
2018-04-22T11:23:23.491Z,4272.00
2018-04-22T11:24:23.521Z,4468.00
2018-04-22T11:25:23.536Z,4528.00
2018-04-22T11:26:23.560Z,4552.00
2018-04-22T11:27:23.600Z,4544.00
2018-04-22T11:28:23.603Z,4592.00
2018-04-22T11:29:23.727Z,4672.00
2018-04-22T11:30:23.643Z,4700.00
2018-04-22T11:32:23.685Z,5072.00
2018-04-22T11:33:23.706Z,5036.00
2018-04-22T11:34:23.732Z,5368.00
2018-04-22T11:35:23.753Z,5372.00
2018-04-22T11:36:23.771Z,5304.00
2018-04-22T11:37:23.809Z,5252.00
2018-04-22T11:38:23.814Z,5380.00
2018-04-22T11:39:23.864Z,5316.00
2018-04-22T11:40:23.858Z,5112.00
2018-04-22T11:41:23.880Z,5168.00
2018-04-22T11:42:23.906Z,5236.00
2018-04-22T11:43:23.928Z,5216.00
2018-04-22T11:44:23.944Z,5568.00
2018-04-22T11:45:23.967Z,5596.00
2018-04-22T11:46:23.989Z,5736.00
2018-04-22T11:47:24.012Z,5528.00
2018-04-22T11:48:24.035Z,4856.00
2018-04-22T11:49:24.058Z,5056.00
2018-04-22T11:50:24.085Z,4736.00
2018-04-22T11:52:24.121Z,5208.00
2018-04-22T11:53:24.154Z,5228.00
2018-04-22T11:54:24.174Z,5424.00
2018-04-22T11:55:24.197Z,5620.00
2018-04-22T11:56:24.216Z,5432.00
2018-04-22T11:57:24.232Z,5492.00
2018-04-22T11:58:24.260Z,5268.00
2018-04-22T11:59:24.282Z,4620.00
2018-04-22T12:00:24.308Z,4684.00
2018-04-22T12:01:24.329Z,4752.00
2018-04-22T12:02:24.369Z,4692.00
2018-04-22T12:03:24.372Z,4504.00
2018-04-22T12:04:24.388Z,4280.00
2018-04-22T12:05:24.410Z,4608.00
2018-04-22T12:06:24.432Z,5172.00
2018-04-22T12:07:24.522Z,5068.00
2018-04-22T12:08:24.507Z,4976.00
2018-04-22T12:09:24.503Z,5256.00
2018-04-22T12:10:24.547Z,5396.00
2018-04-22T12:11:24.549Z,5624.00
2018-04-22T12:12:24.566Z,5996.00
2018-04-22T12:13:24.591Z,6528.00
2018-04-22T12:14:24.613Z,6100.00
2018-04-22T12:15:24.634Z,5328.00
2018-04-22T12:16:24.656Z,4916.00
2018-04-22T12:17:24.681Z,6004.00
2018-04-22T12:18:24.701Z,6148.00
2018-04-22T12:19:24.723Z,5868.00
2018-04-22T12:20:24.761Z,5548.00
2018-04-22T12:21:24.767Z,5464.00
2018-04-22T12:22:24.791Z,4972.00
2018-04-22T12:23:24.817Z,5032.00
2018-04-22T12:24:24.837Z,5328.00
2018-04-22T12:25:24.859Z,5400.00
2018-04-22T12:26:24.882Z,4968.00
2018-04-22T12:27:24.905Z,4068.00
2018-04-22T12:28:24.962Z,3964.00
2018-04-22T12:29:25.013Z,3976.00
2018-04-22T12:30:24.980Z,4444.00
2018-04-22T12:31:24.996Z,5940.00
2018-04-22T12:32:25.017Z,5976.00
2018-04-22T12:33:25.039Z,3824.00
2018-04-22T12:34:25.084Z,5828.00
2018-04-22T12:35:25.085Z,5708.00
2018-04-22T12:36:25.114Z,3868.00
2018-04-22T12:37:25.131Z,5232.00
2018-04-22T12:38:25.154Z,5444.00
2018-04-22T12:39:25.213Z,3320.00
2018-04-22T12:40:25.203Z,5464.00
2018-04-22T12:41:25.286Z,5436.00
2018-04-22T12:42:25.253Z,5392.00
2018-04-22T12:43:25.268Z,5364.00
2018-04-22T12:44:25.294Z,5372.00
2018-04-22T12:45:25.315Z,5372.00
2018-04-22T12:46:25.336Z,5376.00
2018-04-22T12:47:25.362Z,5388.00
2018-04-22T12:48:25.383Z,5380.00